Time;durP1;ratioP1;P1;durP2;ratioP2;P2;SDS_P1;SDS_P2;PMS_P1;PMS_P2;Temp;Humidity;BMP_temperature;BMP_pressure;BME280_temperature;BME280_humidity;BME280_pressure;Samples;Min_cycle;Max_cycle;Signal;HPM_P1;HPM_P2
2023/06/06 00:00:28;;;;;;;2.88;1.33;;;20.90;1.00;;;;;;4862115;29;20050;-59
2023/06/06 00:02:56;;;;;;;2.95;1.30;;;20.90;1.00;;;;;;4862435;29;20046;-48
2023/06/06 00:05:25;;;;;;;4.45;2.13;;;20.90;1.00;;;;;;4862924;29;20498;-49
2023/06/06 00:07:52;;;;;;;2.67;1.20;;;20.90;1.00;;;;;;4862811;29;20038;-50
2023/06/06 00:10:19;;;;;;;2.45;1.05;;;20.80;1.00;;;;;;4862323;29;20037;-49
2023/06/06 00:12:52;;;;;;;2.67;1.00;;;20.90;1.00;;;;;;4862669;29;20084;-50
2023/06/06 00:15:19;;;;;;;1.55;1.00;;;20.80;1.00;;;;;;4862525;29;20061;-49
2023/06/06 00:17:48;;;;;;;2.65;1.05;;;20.80;1.00;;;;;;4862519;29;20041;-50
2023/06/06 00:20:16;;;;;;;2.67;1.10;;;20.80;1.00;;;;;;4861749;29;20101;-49
2023/06/06 00:22:43;;;;;;;2.50;1.20;;;20.80;1.00;;;;;;4862399;29;20056;-49
2023/06/06 00:25:10;;;;;;;1.80;1.30;;;20.80;1.00;;;;;;4862145;29;20092;-51
2023/06/06 00:27:38;;;;;;;2.15;1.10;;;20.80;1.00;;;;;;4861753;29;20378;-50
2023/06/06 00:30:06;;;;;;;2.40;1.30;;;20.80;1.00;;;;;;4861374;29;20046;-48
2023/06/06 00:32:33;;;;;;;2.95;1.15;;;20.80;1.00;;;;;;4860577;29;20042;-48
2023/06/06 00:35:00;;;;;;;1.55;0.90;;;20.80;1.00;;;;;;4861985;29;20041;-50
2023/06/06 00:37:28;;;;;;;2.35;1.88;;;20.80;1.00;;;;;;4860309;29;20049;-53
2023/06/06 00:39:54;;;;;;;2.78;1.38;;;20.80;1.00;;;;;;4861648;29;20056;-50
2023/06/06 00:42:21;;;;;;;3.40;1.20;;;20.80;1.00;;;;;;4860383;29;20136;-50
2023/06/06 00:44:48;;;;;;;2.70;1.63;;;20.70;1.00;;;;;;4860863;29;20051;-51
2023/06/06 00:47:15;;;;;;;1.52;1.02;;;20.70;1.00;;;;;;4862064;29;20499;-49
2023/06/06 00:49:46;;;;;;;4.72;1.40;;;20.70;1.00;;;;;;4860194;29;20073;-55
2023/06/06 00:52:13;;;;;;;2.67;1.05;;;20.70;1.00;;;;;;4860149;29;20037;-51
2023/06/06 00:54:41;;;;;;;4.63;1.80;;;20.70;1.00;;;;;;4861273;29;20056;-50
2023/06/06 00:57:09;;;;;;;2.72;1.60;;;20.70;1.00;;;;;;4861423;29;20041;-49
2023/06/06 00:59:38;;;;;;;2.42;1.40;;;20.70;1.00;;;;;;4860175;29;20493;-51
2023/06/06 01:02:09;;;;;;;5.18;1.27;;;20.70;1.00;;;;;;4861810;29;20068;-51
2023/06/06 01:04:40;;;;;;;2.25;1.10;;;20.70;1.00;;;;;;4861648;29;20033;-50
2023/06/06 01:07:09;;;;;;;5.85;1.23;;;20.70;1.00;;;;;;4860544;29;20485;-48
2023/06/06 01:09:37;;;;;;;2.08;1.00;;;20.70;1.00;;;;;;4861173;29;20042;-49
2023/06/06 01:12:22;;;;;;;4.43;1.23;;;20.70;1.00;;;;;;4860257;29;20045;-48
2023/06/06 01:15:16;;;;;;;1.85;1.08;;;20.70;1.00;;;;;;4858417;29;20052;-49
2023/06/06 01:17:46;;;;;;;5.13;1.73;;;20.70;1.00;;;;;;4860102;29;20056;-48
2023/06/06 01:20:14;;;;;;;2.95;1.33;;;20.60;1.00;;;;;;4860970;29;20046;-49
2023/06/06 01:22:43;;;;;;;4.40;1.50;;;20.60;1.00;;;;;;4875413;29;20061;-48
2023/06/06 01:25:12;;;;;;;2.80;1.10;;;20.60;1.00;;;;;;4860171;29;20090;-49
2023/06/06 01:27:39;;;;;;;2.85;1.60;;;20.60;1.00;;;;;;4859938;29;20485;-49
2023/06/06 01:30:07;;;;;;;4.78;1.10;;;20.60;1.00;;;;;;4862078;29;20049;-49
2023/06/06 01:32:59;;;;;;;3.10;1.02;;;20.60;1.00;;;;;;4860861;29;20049;-60
2023/06/06 01:35:49;;;;;;;3.30;1.48;;;20.60;1.00;;;;;;4859341;29;20053;-49
2023/06/06 01:38:42;;;;;;;2.42;1.25;;;20.60;1.00;;;;;;4860728;29;20478;-47
2023/06/06 01:41:10;;;;;;;;;;;20.60;1.00;;;;;;4861015;29;20450;-48
2023/06/06 01:43:40;;;;;;;3.25;1.50;;;20.60;1.00;;;;;;4860537;29;19924;-47
2023/06/06 01:46:08;;;;;;;3.50;1.52;;;20.60;1.00;;;;;;4859539;29;20041;-48
2023/06/06 01:48:36;;;;;;;7.72;1.55;;;20.60;1.00;;;;;;4859192;29;20072;-50
2023/06/06 01:51:03;;;;;;;2.45;1.30;;;20.50;1.00;;;;;;4858749;29;20038;-48
2023/06/06 01:53:30;;;;;;;3.08;1.30;;;20.60;1.00;;;;;;4860632;29;20121;-48
2023/06/06 01:55:57;;;;;;;2.85;1.20;;;20.60;1.00;;;;;;4866710;29;20058;-48
2023/06/06 01:58:24;;;;;;;4.70;1.40;;;20.50;1.00;;;;;;4858601;29;20106;-50
2023/06/06 02:00:51;;;;;;;2.70;1.17;;;20.50;1.00;;;;;;4858713;29;20042;-47
2023/06/06 02:03:17;;;;;;;3.63;1.38;;;20.50;1.00;;;;;;4860440;29;20080;-48
2023/06/06 02:05:45;;;;;;;2.88;1.27;;;20.50;1.00;;;;;;4860535;29;20065;-49
2023/06/06 02:08:12;;;;;;;1.98;1.00;;;20.50;1.00;;;;;;4858678;29;20137;-48
2023/06/06 02:10:39;;;;;;;2.88;1.33;;;20.50;1.00;;;;;;4859393;29;20061;-51
2023/06/06 02:13:06;;;;;;;4.28;1.58;;;20.50;1.00;;;;;;4858411;29;20053;-48
2023/06/06 02:15:33;;;;;;;2.35;1.20;;;20.50;1.00;;;;;;4859645;29;20042;-49
2023/06/06 02:18:00;;;;;;;3.08;1.25;;;20.50;1.00;;;;;;4859809;29;20094;-48
2023/06/06 02:20:28;;;;;;;1.17;0.90;;;20.50;1.00;;;;;;4859652;29;20046;-48
2023/06/06 02:22:55;;;;;;;3.80;1.55;;;20.50;1.00;;;;;;4860345;29;20059;-53
2023/06/06 02:25:23;;;;;;;3.05;1.40;;;20.50;1.00;;;;;;4859992;29;20461;-49
2023/06/06 02:27:51;;;;;;;3.05;1.45;;;20.50;1.00;;;;;;4860230;29;20042;-49
2023/06/06 02:30:18;;;;;;;3.35;1.10;;;20.50;1.00;;;;;;4861770;29;20041;-49
2023/06/06 02:32:46;;;;;;;2.60;1.30;;;20.40;1.00;;;;;;4860442;29;20102;-48
2023/06/06 02:35:16;;;;;;;4.38;1.38;;;20.40;1.00;;;;;;4860411;29;20042;-48
2023/06/06 02:37:43;;;;;;;3.30;1.35;;;20.40;1.00;;;;;;4851235;29;20069;-48
2023/06/06 02:40:10;;;;;;;2.53;1.25;;;20.40;1.00;;;;;;4859373;29;20042;-49
2023/06/06 02:42:41;;;;;;;2.95;1.25;;;20.40;1.00;;;;;;4858829;29;20042;-49
2023/06/06 02:45:10;;;;;;;2.30;1.42;;;20.40;1.00;;;;;;4858740;29;20078;-52
2023/06/06 02:47:37;;;;;;;2.22;0.98;;;20.40;1.00;;;;;;4858796;29;20041;-48
2023/06/06 02:50:05;;;;;;;2.78;1.52;;;20.40;1.00;;;;;;4858123;29;20042;-48
2023/06/06 02:52:33;;;;;;;5.18;1.50;;;20.40;1.00;;;;;;4859912;29;20045;-48
2023/06/06 02:55:00;;;;;;;4.80;1.58;;;20.40;1.00;;;;;;4858650;29;20461;-50
2023/06/06 02:57:27;;;;;;;3.47;1.08;;;20.40;1.00;;;;;;4857943;29;20136;-48
2023/06/06 02:59:55;;;;;;;1.73;1.27;;;20.40;1.00;;;;;;4859042;29;20519;-49
2023/06/06 03:02:21;;;;;;;2.85;1.27;;;20.40;1.00;;;;;;4859401;29;20393;-50
2023/06/06 03:04:48;;;;;;;2.28;1.10;;;20.40;1.00;;;;;;4857801;29;20034;-49
2023/06/06 03:07:16;;;;;;;2.80;1.13;;;20.40;1.00;;;;;;4859673;29;20045;-48
2023/06/06 03:09:43;;;;;;;2.42;1.38;;;20.40;1.00;;;;;;4858265;29;20124;-48
2023/06/06 03:12:14;;;;;;;2.53;1.10;;;20.40;1.00;;;;;;4858623;29;20045;-53
2023/06/06 03:14:41;;;;;;;3.42;1.33;;;20.30;1.00;;;;;;4858165;29;20068;-48
2023/06/06 03:17:24;;;;;;;2.78;1.48;;;20.30;1.00;;;;;;4858270;29;20505;-54
2023/06/06 03:19:51;;;;;;;4.00;1.20;;;20.30;1.00;;;;;;4858891;29;20075;-50
2023/06/06 03:22:18;;;;;;;1.83;0.93;;;20.30;1.00;;;;;;4862931;29;20090;-48
2023/06/06 03:24:46;;;;;;;2.55;1.10;;;20.30;1.00;;;;;;4869466;29;20209;-49
2023/06/06 03:27:14;;;;;;;2.50;1.10;;;20.30;1.00;;;;;;4861442;29;20648;-48
2023/06/06 03:29:41;;;;;;;3.28;1.55;;;20.30;1.00;;;;;;4863122;29;20069;-48
2023/06/06 03:32:08;;;;;;;3.13;1.25;;;20.30;1.00;;;;;;4860380;29;20502;-51
2023/06/06 03:34:35;;;;;;;4.05;1.75;;;20.30;1.00;;;;;;4860842;29;20053;-49
2023/06/06 03:37:03;;;;;;;2.13;1.13;;;20.30;1.00;;;;;;4861641;29;20042;-49
2023/06/06 03:39:30;;;;;;;3.08;1.10;;;20.30;1.00;;;;;;4861298;29;20474;-49
2023/06/06 03:41:57;;;;;;;2.47;1.55;;;20.30;1.00;;;;;;4860352;29;20050;-50
2023/06/06 03:44:25;;;;;;;2.25;0.95;;;20.30;1.00;;;;;;4862337;29;20038;-49
2023/06/06 03:46:52;;;;;;;5.68;1.27;;;20.30;1.00;;;;;;4861598;29;20432;-47
2023/06/06 03:49:19;;;;;;;2.22;1.58;;;20.20;1.00;;;;;;4860863;29;20049;-50
2023/06/06 03:51:46;;;;;;;2.70;0.80;;;20.20;1.00;;;;;;4862351;29;20072;-49
2023/06/06 03:54:13;;;;;;;2.42;1.10;;;20.20;1.00;;;;;;4864129;29;20052;-51
2023/06/06 03:56:42;;;;;;;1.98;1.20;;;20.20;1.00;;;;;;4863435;29;20153;-53
2023/06/06 03:59:11;;;;;;;2.70;1.35;;;20.20;1.00;;;;;;4862379;29;20132;-51
2023/06/06 04:01:40;;;;;;;6.00;1.80;;;20.20;1.00;;;;;;4862385;29;20049;-49
2023/06/06 04:04:09;;;;;;;3.45;2.00;;;20.20;1.00;;;;;;4861852;29;20069;-51
2023/06/06 04:06:37;;;;;;;2.85;1.80;;;20.20;1.00;;;;;;4862637;29;20121;-49
2023/06/06 04:09:10;;;;;;;2.55;1.38;;;20.20;1.00;;;;;;4860906;29;20455;-49
2023/06/06 04:11:37;;;;;;;3.10;1.70;;;20.20;1.00;;;;;;4860063;29;20049;-49
2023/06/06 04:14:05;;;;;;;4.57;1.42;;;20.20;1.00;;;;;;4860861;29;20426;-48
2023/06/06 04:16:31;;;;;;;3.88;1.70;;;20.10;1.00;;;;;;4860396;29;20064;-49
2023/06/06 04:18:58;;;;;;;5.18;1.98;;;20.20;1.00;;;;;;4860428;29;20060;-49
2023/06/06 04:21:26;;;;;;;3.67;1.08;;;20.20;1.00;;;;;;4859952;29;20057;-49
2023/06/06 04:23:53;;;;;;;5.35;1.52;;;20.20;1.00;;;;;;4860183;29;20072;-51
2023/06/06 04:26:23;;;;;;;4.60;1.27;;;20.20;1.00;;;;;;4860468;29;20049;-53
2023/06/06 04:28:53;;;;;;;2.40;1.40;;;20.20;1.00;;;;;;4863314;29;20465;-49
2023/06/06 04:31:23;;;;;;;3.33;1.42;;;20.10;1.00;;;;;;4859791;29;20528;-54
2023/06/06 04:33:54;;;;;;;3.63;1.75;;;20.10;1.00;;;;;;4860200;29;20056;-50
2023/06/06 04:36:25;;;;;;;4.00;1.60;;;20.10;1.00;;;;;;4860046;29;20052;-55
2023/06/06 04:39:00;;;;;;;2.50;1.42;;;20.10;1.00;;;;;;4860452;29;20458;-49
2023/06/06 04:41:30;;;;;;;4.72;1.48;;;20.10;1.00;;;;;;4859521;29;20051;-50
2023/06/06 04:44:04;;;;;;;4.65;1.67;;;20.10;1.00;;;;;;4861273;29;20121;-51
2023/06/06 04:46:31;;;;;;;3.15;1.90;;;20.10;1.00;;;;;;4861598;29;20338;-51
2023/06/06 04:49:01;;;;;;;2.65;1.42;;;20.10;1.00;;;;;;4861239;29;20034;-48
2023/06/06 04:51:30;;;;;;;6.35;2.25;;;20.10;1.00;;;;;;4859514;29;20045;-47
2023/06/06 04:53:59;;;;;;;2.45;1.13;;;20.10;1.00;;;;;;4861189;29;20062;-48
2023/06/06 04:56:29;;;;;;;4.00;2.05;;;20.10;1.00;;;;;;4861119;29;20050;-49
2023/06/06 04:59:05;;;;;;;2.63;1.58;;;20.10;1.00;;;;;;4861084;29;20124;-48
2023/06/06 05:01:36;;;;;;;3.38;1.77;;;20.10;1.00;;;;;;4860868;29;20050;-49
2023/06/06 05:04:04;;;;;;;2.95;1.58;;;20.10;1.00;;;;;;4861146;29;20041;-48
2023/06/06 05:06:33;;;;;;;3.40;1.27;;;20.10;1.00;;;;;;4861273;29;20053;-50
2023/06/06 05:09:03;;;;;;;3.28;1.20;;;20.10;1.00;;;;;;4861898;29;20085;-49
2023/06/06 05:11:30;;;;;;;4.63;1.60;;;20.10;1.00;;;;;;4861409;29;20511;-48
2023/06/06 05:13:57;;;;;;;3.22;1.30;;;20.10;1.00;;;;;;4861760;29;20568;-49
2023/06/06 05:16:25;;;;;;;2.28;1.33;;;20.00;1.00;;;;;;4861229;29;20124;-49
2023/06/06 05:18:52;;;;;;;3.78;1.25;;;20.00;1.00;;;;;;4861299;29;20382;-50
2023/06/06 05:21:19;;;;;;;3.78;1.85;;;20.10;1.00;;;;;;4860936;29;20055;-50
2023/06/06 05:23:46;;;;;;;3.95;1.80;;;20.00;1.00;;;;;;4868959;29;20474;-51
2023/06/06 05:26:13;;;;;;;2.97;1.55;;;20.00;1.00;;;;;;4861166;29;20037;-49
2023/06/06 05:28:40;;;;;;;4.35;1.55;;;20.00;1.00;;;;;;4863850;29;20704;-49
2023/06/06 05:31:07;;;;;;;4.47;1.42;;;20.00;1.00;;;;;;4860288;29;20163;-49
2023/06/06 05:33:40;;;;;;;2.38;1.52;;;20.00;1.00;;;;;;4860069;29;20045;-49
2023/06/06 05:36:07;;;;;;;2.45;1.23;;;20.00;1.00;;;;;;4860411;29;20061;-49
2023/06/06 05:38:34;;;;;;;3.67;1.80;;;20.00;1.00;;;;;;4860313;29;20102;-49
2023/06/06 05:41:01;;;;;;;2.83;1.20;;;20.00;1.00;;;;;;4859171;29;20494;-52
2023/06/06 05:43:31;;;;;;;5.45;1.38;;;20.00;1.00;;;;;;4860323;29;20038;-50
2023/06/06 05:45:58;;;;;;;2.28;1.63;;;20.00;1.00;;;;;;4860281;29;20060;-51
2023/06/06 05:48:24;;;;;;;2.92;1.45;;;20.00;1.00;;;;;;4860421;29;20077;-51
2023/06/06 05:50:51;;;;;;;4.30;1.73;;;20.00;1.00;;;;;;4859672;29;20097;-49
2023/06/06 05:53:18;;;;;;;6.20;1.50;;;20.00;1.00;;;;;;4860144;29;20097;-50
2023/06/06 05:55:45;;;;;;;2.33;1.50;;;20.00;1.00;;;;;;4859838;29;20132;-49
2023/06/06 05:58:12;;;;;;;5.32;1.38;;;20.00;1.00;;;;;;4859278;29;20080;-49
2023/06/06 06:00:39;;;;;;;2.92;1.25;;;20.00;1.00;;;;;;4859604;29;20140;-50
2023/06/06 06:03:08;;;;;;;3.33;1.20;;;20.00;1.00;;;;;;4860100;29;20517;-50
2023/06/06 06:05:36;;;;;;;4.10;1.80;;;20.00;1.00;;;;;;4859556;29;20520;-50
2023/06/06 06:08:04;;;;;;;2.65;1.13;;;20.00;1.00;;;;;;4859742;29;20091;-49
2023/06/06 06:10:33;;;;;;;2.22;1.50;;;20.00;1.00;;;;;;4859644;29;20049;-49
2023/06/06 06:13:01;;;;;;;2.40;1.52;;;20.00;1.00;;;;;;4867108;29;20054;-49
2023/06/06 06:15:32;;;;;;;2.35;1.45;;;20.00;1.00;;;;;;4860064;29;20046;-50
2023/06/06 06:18:03;;;;;;;2.75;1.70;;;20.00;1.00;;;;;;4859959;29;20116;-48
2023/06/06 06:20:30;;;;;;;4.25;1.80;;;20.00;1.00;;;;;;4859590;29;20053;-51
2023/06/06 06:22:57;;;;;;;2.75;1.40;;;20.00;1.00;;;;;;4860153;29;20042;-48
2023/06/06 06:25:24;;;;;;;3.00;1.35;;;20.00;1.00;;;;;;4860183;29;20053;-49
2023/06/06 06:27:51;;;;;;;3.08;1.40;;;20.00;1.00;;;;;;4860052;29;20049;-48
2023/06/06 06:30:18;;;;;;;3.92;1.25;;;20.00;1.00;;;;;;4862895;29;20057;-50
2023/06/06 06:32:45;;;;;;;5.82;1.80;;;20.00;1.00;;;;;;4859742;29;20049;-47
2023/06/06 06:35:12;;;;;;;3.15;1.55;;;20.00;1.00;;;;;;4859528;29;20048;-49
2023/06/06 06:37:40;;;;;;;2.97;1.55;;;20.00;1.00;;;;;;4859737;29;20517;-49
2023/06/06 06:40:11;;;;;;;2.33;1.20;;;20.00;1.00;;;;;;4859433;29;20045;-60
2023/06/06 06:42:40;;;;;;;2.10;1.33;;;20.00;1.00;;;;;;4858510;29;20100;-52
2023/06/06 06:45:19;;;;;;;3.92;1.25;;;20.00;1.00;;;;;;4858251;29;20509;-50
2023/06/06 06:47:46;;;;;;;3.75;1.35;;;20.00;1.00;;;;;;4859482;29;20045;-48
2023/06/06 06:50:13;;;;;;;2.95;1.33;;;20.00;1.00;;;;;;4859333;29;20037;-48
2023/06/06 06:52:40;;;;;;;2.80;1.45;;;20.00;1.00;;;;;;4860759;29;20064;-49
2023/06/06 06:55:09;;;;;;;3.63;1.33;;;20.00;1.00;;;;;;4863349;29;20045;-50
2023/06/06 06:57:38;;;;;;;3.15;1.48;;;20.00;1.00;;;;;;4863547;29;20136;-49
2023/06/06 07:00:12;;;;;;;5.03;1.75;;;20.00;1.00;;;;;;4863064;29;20045;-52
2023/06/06 07:02:42;;;;;;;5.43;2.20;;;20.00;1.00;;;;;;4862974;29;20414;-50
2023/06/06 07:05:17;;;;;;;6.13;1.42;;;20.10;1.00;;;;;;4862877;29;20073;-51
2023/06/06 07:07:53;;;;;;;2.35;1.10;;;20.00;1.00;;;;;;4861602;29;20053;-49
2023/06/06 07:10:23;;;;;;;5.90;1.80;;;20.10;1.00;;;;;;4862745;29;20116;-51
2023/06/06 07:12:51;;;;;;;4.15;1.88;;;20.10;1.00;;;;;;4862937;29;20045;-48
2023/06/06 07:15:23;;;;;;;3.63;1.80;;;20.00;1.00;;;;;;4861566;29;20052;-50
2023/06/06 07:17:50;;;;;;;2.97;1.67;;;20.10;1.00;;;;;;4861112;29;20466;-49
2023/06/06 07:20:23;;;;;;;3.50;1.83;;;20.10;1.00;;;;;;4862524;29;20378;-49
2023/06/06 07:22:55;;;;;;;5.25;1.88;;;20.10;1.00;;;;;;4862725;29;20072;-49
2023/06/06 07:25:22;;;;;;;2.25;1.25;;;20.10;1.00;;;;;;4862718;29;20049;-49
2023/06/06 07:27:49;;;;;;;3.05;1.38;;;20.10;1.00;;;;;;4862638;29;20053;-50
2023/06/06 07:30:16;;;;;;;4.20;1.55;;;20.10;1.00;;;;;;4866490;29;20106;-51
2023/06/06 07:32:46;;;;;;;3.95;1.30;;;20.10;1.00;;;;;;4862919;29;20045;-50
2023/06/06 07:35:15;;;;;;;5.75;2.63;;;20.10;1.00;;;;;;4863034;29;20656;-50
2023/06/06 07:37:42;;;;;;;3.20;1.52;;;20.10;1.00;;;;;;4862736;29;20125;-51
2023/06/06 07:40:11;;;;;;;4.30;1.30;;;20.10;1.00;;;;;;4862372;29;20153;-51
2023/06/06 07:42:42;;;;;;;6.70;1.80;;;20.10;1.00;;;;;;4862463;29;20113;-50
2023/06/06 07:45:10;;;;;;;3.33;1.20;;;20.10;1.00;;;;;;4861577;29;20052;-51
2023/06/06 07:47:39;;;;;;;1.92;1.50;;;20.20;1.00;;;;;;4863091;29;20041;-50
2023/06/06 07:50:06;;;;;;;3.20;1.55;;;20.10;1.00;;;;;;4862195;29;20064;-48
2023/06/06 07:52:34;;;;;;;4.53;1.45;;;20.20;1.00;;;;;;4862102;29;20113;-50
2023/06/06 07:55:03;;;;;;;2.53;1.67;;;20.20;1.00;;;;;;4862360;29;20101;-49
2023/06/06 07:57:30;;;;;;;2.65;1.20;;;20.20;1.00;;;;;;4870122;29;20447;-50
2023/06/06 07:59:58;;;;;;;2.10;1.17;;;20.20;1.00;;;;;;4861498;29;20045;-51
2023/06/06 08:02:25;;;;;;;2.92;1.88;;;20.20;1.00;;;;;;4862301;29;20052;-52
2023/06/06 08:04:52;;;;;;;2.35;1.42;;;20.20;1.00;;;;;;4862227;29;20371;-51
2023/06/06 08:07:19;;;;;;;3.72;1.63;;;20.20;1.00;;;;;;4864285;29;20409;-50
2023/06/06 08:09:46;;;;;;;3.42;1.80;;;20.20;1.00;;;;;;4863909;29;20050;-50
2023/06/06 08:12:13;;;;;;;2.40;1.40;;;20.20;1.00;;;;;;4863831;29;20061;-50
2023/06/06 08:14:41;;;;;;;2.75;1.50;;;20.20;1.00;;;;;;4862832;29;20084;-49
2023/06/06 08:17:08;;;;;;;2.83;1.30;;;20.20;1.00;;;;;;4863516;29;20096;-50
2023/06/06 08:19:35;;;;;;;2.42;1.45;;;20.20;1.00;;;;;;4863382;29;20560;-52
2023/06/06 08:22:02;;;;;;;3.75;1.40;;;20.20;1.00;;;;;;4861940;29;20132;-52
2023/06/06 08:24:29;;;;;;;4.40;2.00;;;20.20;1.00;;;;;;4862072;29;20056;-51
2023/06/06 08:26:57;;;;;;;5.60;1.77;;;20.20;1.00;;;;;;4861202;29;20053;-52
2023/06/06 08:29:25;;;;;;;5.25;1.67;;;20.20;1.00;;;;;;4866059;29;20041;-52
2023/06/06 08:31:53;;;;;;;5.60;1.33;;;20.20;1.00;;;;;;4861116;29;20041;-52
2023/06/06 08:34:22;;;;;;;4.00;1.95;;;20.20;1.00;;;;;;4861414;29;20120;-52
2023/06/06 08:36:49;;;;;;;3.20;1.65;;;20.20;1.00;;;;;;4861382;29;20129;-52
2023/06/06 08:39:19;;;;;;;5.00;1.95;;;20.20;1.00;;;;;;4861398;29;20464;-50
2023/06/06 08:41:50;;;;;;;3.70;1.45;;;20.20;1.00;;;;;;4860852;29;20144;-52
2023/06/06 08:44:21;;;;;;;3.08;1.42;;;20.30;1.00;;;;;;4861434;29;20046;-51
2023/06/06 08:46:53;;;;;;;2.10;1.23;;;20.30;1.00;;;;;;4861144;29;20133;-53
2023/06/06 08:49:21;;;;;;;5.22;1.70;;;20.20;1.00;;;;;;4861451;29;20037;-50
2023/06/06 08:51:49;;;;;;;2.90;1.38;;;20.30;1.00;;;;;;4860623;29;20053;-52
2023/06/06 08:54:18;;;;;;;3.92;2.60;;;20.30;1.00;;;;;;4861139;29;20553;-55
2023/06/06 08:56:46;;;;;;;5.68;2.22;;;20.30;1.00;;;;;;4860952;29;20054;-53
2023/06/06 08:59:14;;;;;;;3.97;1.50;;;20.30;1.00;;;;;;4861187;29;20102;-53
2023/06/06 09:01:41;;;;;;;2.97;1.27;;;20.30;1.00;;;;;;4860939;29;20136;-50
2023/06/06 09:04:08;;;;;;;3.20;1.52;;;20.30;1.00;;;;;;4862030;29;20563;-50
2023/06/06 09:06:43;;;;;;;3.75;1.88;;;20.30;1.00;;;;;;4861982;29;20084;-50
2023/06/06 09:09:15;;;;;;;4.15;2.00;;;20.30;1.00;;;;;;4861792;29;20037;-50
2023/06/06 09:11:43;;;;;;;3.53;2.25;;;20.30;1.00;;;;;;4861416;29;20460;-50
2023/06/06 09:14:10;;;;;;;3.40;1.75;;;20.30;1.00;;;;;;4861783;29;20444;-50
2023/06/06 09:16:39;;;;;;;3.58;1.95;;;20.30;1.00;;;;;;4859786;29;20064;-50
2023/06/06 09:19:08;;;;;;;2.70;1.60;;;20.30;1.00;;;;;;4861672;29;20092;-49
2023/06/06 09:21:36;;;;;;;2.15;1.40;;;20.30;1.00;;;;;;4861173;29;20113;-49
2023/06/06 09:24:03;;;;;;;6.07;1.75;;;20.30;1.00;;;;;;4861617;29;20049;-51
2023/06/06 09:26:33;;;;;;;4.97;1.98;;;20.30;1.00;;;;;;4861915;29;20125;-50
2023/06/06 09:29:07;;;;;;;3.42;1.70;;;20.30;1.00;;;;;;4866131;29;20074;-54
2023/06/06 09:31:38;;;;;;;2.67;1.75;;;20.30;1.00;;;;;;4860751;29;20067;-50
2023/06/06 09:34:07;;;;;;;4.82;1.83;;;20.40;1.00;;;;;;4859951;29;20037;-49
2023/06/06 09:36:37;;;;;;;5.40;2.35;;;20.30;1.00;;;;;;4861622;29;20053;-50
2023/06/06 09:39:09;;;;;;;4.88;2.20;;;20.30;1.00;;;;;;4861187;29;20046;-51
2023/06/06 09:41:55;;;;;;;3.22;1.98;;;20.30;1.00;;;;;;4861133;29;20048;-49
2023/06/06 09:44:28;;;;;;;3.30;2.00;;;20.40;1.00;;;;;;4860756;29;20050;-50
2023/06/06 09:46:58;;;;;;;;;;;20.30;1.00;;;;;;4861172;29;20049;-49
2023/06/06 09:49:25;;;;;;;2.53;1.40;;;20.30;1.00;;;;;;4859999;29;20265;-52
2023/06/06 09:51:55;;;;;;;3.88;1.95;;;20.30;1.00;;;;;;4859546;29;20141;-51
2023/06/06 09:54:23;;;;;;;4.75;2.05;;;20.30;1.00;;;;;;4861056;29;20124;-49
2023/06/06 09:56:51;;;;;;;3.28;1.88;;;20.30;1.00;;;;;;4860922;29;20054;-50
2023/06/06 09:59:23;;;;;;;2.60;1.75;;;20.40;1.00;;;;;;4861191;29;20133;-50
2023/06/06 10:01:56;;;;;;;5.53;2.10;;;20.30;1.00;;;;;;4860579;29;20497;-51
2023/06/06 10:04:25;;;;;;;3.17;1.83;;;20.40;1.00;;;;;;4861159;29;20470;-51
2023/06/06 10:06:54;;;;;;;3.30;2.13;;;20.30;1.00;;;;;;4860551;29;20049;-49
2023/06/06 10:09:22;;;;;;;3.08;2.15;;;20.40;1.00;;;;;;4861083;29;20041;-54
2023/06/06 10:11:50;;;;;;;4.03;2.33;;;20.30;1.00;;;;;;4858981;29;20147;-49
2023/06/06 10:14:17;;;;;;;5.60;2.80;;;20.40;1.00;;;;;;4860678;29;20042;-50
2023/06/06 10:16:44;;;;;;;2.85;2.13;;;20.30;1.00;;;;;;4860329;29;20060;-51
2023/06/06 10:19:13;;;;;;;5.07;2.60;;;20.40;1.00;;;;;;4861179;29;20038;-50
2023/06/06 10:21:41;;;;;;;3.65;2.20;;;20.40;1.00;;;;;;4859975;29;20561;-49
2023/06/06 10:24:08;;;;;;;4.93;2.60;;;20.40;1.00;;;;;;4859714;29;20053;-51
2023/06/06 10:26:45;;;;;;;4.10;2.35;;;20.40;1.00;;;;;;4859748;29;20053;-50
2023/06/06 10:29:29;;;;;;;4.03;1.80;;;20.40;1.00;;;;;;4864723;29;20049;-51
2023/06/06 10:31:58;;;;;;;3.80;2.25;;;20.40;1.00;;;;;;4859042;29;20482;-50
2023/06/06 10:34:31;;;;;;;3.33;1.90;;;20.40;1.00;;;;;;4859690;29;20042;-50
2023/06/06 10:37:25;;;;;;;4.00;2.30;;;20.40;1.00;;;;;;4859608;29;20054;-51
2023/06/06 10:40:05;;;;;;;5.10;2.65;;;20.40;1.00;;;;;;4859039;29;20047;-50
2023/06/06 10:42:40;;;;;;;3.20;1.88;;;20.40;1.00;;;;;;4860018;29;20073;-50
2023/06/06 10:45:07;;;;;;;3.70;1.70;;;20.30;1.00;;;;;;4858753;29;20057;-50
2023/06/06 10:47:44;;;;;;;3.08;2.25;;;20.40;1.00;;;;;;4860768;29;20098;-61
2023/06/06 10:50:16;;;;;;;5.00;2.40;;;20.30;1.00;;;;;;4859185;29;20075;-51
2023/06/06 10:52:48;;;;;;;4.47;2.00;;;20.40;1.00;;;;;;4860529;29;20045;-49
2023/06/06 10:55:39;;;;;;;5.40;2.70;;;20.40;1.00;;;;;;4853606;29;20041;-50
2023/06/06 10:58:13;;;;;;;4.55;2.45;;;20.40;1.00;;;;;;4859110;29;20072;-48
2023/06/06 11:00:43;;;;;;;;;;;20.30;1.00;;;;;;4860314;29;20057;-51
2023/06/06 11:03:13;;;;;;;4.93;2.60;;;20.40;1.00;;;;;;4874420;29;19940;-50
2023/06/06 11:06:01;;;;;;;4.45;1.83;;;20.30;1.00;;;;;;4860172;29;20048;-51
2023/06/06 11:08:35;;;;;;;3.90;2.33;;;20.30;1.00;;;;;;4859183;29;20060;-51
2023/06/06 11:11:25;;;;;;;7.57;2.67;;;20.30;1.00;;;;;;4858835;29;20045;-49
2023/06/06 11:14:07;;;;;;;6.90;2.60;;;20.40;1.00;;;;;;4859137;29;20044;-52
2023/06/06 11:16:40;;;;;;;5.13;1.98;;;20.30;1.00;;;;;;4859681;29;20387;-49
2023/06/06 11:19:18;;;;;;;;;;;20.40;1.00;;;;;;4859631;29;20049;-49
2023/06/06 11:21:49;;;;;;;5.05;2.42;;;20.40;1.00;;;;;;4858079;29;20218;-49
2023/06/06 11:24:21;;;;;;;5.22;2.47;;;20.30;1.00;;;;;;4858192;29;20041;-53
2023/06/06 11:26:51;;;;;;;3.13;2.25;;;20.40;1.00;;;;;;4858279;29;20486;-50
2023/06/06 11:29:20;;;;;;;4.68;2.55;;;20.40;1.00;;;;;;4864092;29;20045;-53
2023/06/06 11:31:48;;;;;;;5.55;2.85;;;20.40;1.00;;;;;;4865744;29;20477;-49
2023/06/06 11:34:15;;;;;;;5.05;2.60;;;20.40;1.00;;;;;;4856905;29;20115;-51
2023/06/06 11:36:44;;;;;;;5.50;3.00;;;20.30;1.00;;;;;;4866784;29;20058;-49
2023/06/06 11:39:13;;;;;;;3.40;2.42;;;20.40;1.00;;;;;;4859343;29;20046;-51
2023/06/06 11:41:42;;;;;;;5.85;3.15;;;20.30;1.00;;;;;;4869406;29;20446;-52
2023/06/06 11:44:09;;;;;;;4.53;2.80;;;20.40;1.00;;;;;;4861968;29;20135;-49
2023/06/06 11:46:53;;;;;;;4.55;2.20;;;20.40;1.00;;;;;;4862285;29;20045;-50
2023/06/06 11:49:21;;;;;;;3.97;2.45;;;20.40;1.00;;;;;;4855409;29;20052;-49
2023/06/06 11:51:59;;;;;;;3.75;2.70;;;20.40;1.00;;;;;;4861882;29;20129;-49
2023/06/06 11:54:28;;;;;;;4.10;2.65;;;20.40;1.00;;;;;;4862328;29;20076;-52
2023/06/06 11:57:00;;;;;;;4.03;2.35;;;20.40;1.00;;;;;;4861728;29;20132;-50
2023/06/06 11:59:27;;;;;;;3.28;2.40;;;20.40;1.00;;;;;;4861846;29;20037;-50
2023/06/06 12:01:56;;;;;;;4.93;2.78;;;20.40;1.00;;;;;;4861497;29;20056;-49
2023/06/06 12:04:24;;;;;;;6.93;3.85;;;20.30;1.00;;;;;;4862321;29;20557;-51
2023/06/06 12:06:57;;;;;;;3.60;2.42;;;20.40;1.00;;;;;;4861250;29;20054;-50
2023/06/06 12:09:24;;;;;;;4.22;2.95;;;20.40;1.00;;;;;;4861348;29;20128;-51
2023/06/06 12:11:51;;;;;;;5.28;2.60;;;20.40;1.00;;;;;;4861456;29;20133;-50
2023/06/06 12:14:23;;;;;;;5.40;2.83;;;20.30;1.00;;;;;;4860823;29;20561;-52
2023/06/06 12:16:51;;;;;;;5.30;2.58;;;20.40;1.00;;;;;;4860556;29;20454;-52
2023/06/06 12:19:19;;;;;;;4.53;2.50;;;20.40;1.00;;;;;;4860825;29;20544;-50
2023/06/06 12:21:51;;;;;;;4.32;2.40;;;20.40;1.00;;;;;;4825499;29;1058403;-49
2023/06/06 12:24:29;;;;;;;5.45;2.65;;;20.30;1.00;;;;;;4861996;29;20045;-49
2023/06/06 12:27:00;;;;;;;4.00;2.45;;;20.40;1.00;;;;;;4861652;29;20121;-49
2023/06/06 12:29:31;;;;;;;5.90;2.50;;;20.40;1.00;;;;;;4867900;29;20150;-51
2023/06/06 12:32:21;;;;;;;4.50;2.22;;;20.40;1.00;;;;;;4862042;29;20573;-51
2023/06/06 12:35:02;;;;;;;8.35;3.03;;;20.40;1.00;;;;;;4862591;29;20052;-52
2023/06/06 12:37:39;;;;;;;3.33;2.17;;;20.40;1.00;;;;;;4862081;29;20049;-52
2023/06/06 12:40:20;;;;;;;5.03;2.92;;;20.30;1.00;;;;;;4861094;29;20125;-52
2023/06/06 12:43:03;;;;;;;4.93;3.15;;;20.30;1.00;;;;;;4861723;29;20414;-50
2023/06/06 12:45:32;;;;;;;4.00;2.40;;;20.40;1.00;;;;;;4855411;29;20045;-50
2023/06/06 12:47:59;;;;;;;4.32;2.22;;;20.40;1.00;;;;;;4861448;29;20041;-51
2023/06/06 12:50:26;;;;;;;4.53;2.53;;;20.30;1.00;;;;;;4860775;29;20045;-50
2023/06/06 12:52:52;;;;;;;5.22;2.83;;;20.40;1.00;;;;;;4861296;29;20049;-49
2023/06/06 12:55:19;;;;;;;5.05;2.63;;;20.30;1.00;;;;;;4861357;29;20041;-48
2023/06/06 12:57:47;;;;;;;5.90;2.70;;;20.30;1.00;;;;;;4861676;29;20058;-51
2023/06/06 13:00:16;;;;;;;5.75;3.40;;;20.30;1.00;;;;;;4861712;29;20056;-48
2023/06/06 13:02:44;;;;;;;4.43;2.72;;;20.30;1.00;;;;;;4862139;29;20124;-49
2023/06/06 13:05:12;;;;;;;6.28;2.70;;;20.30;1.00;;;;;;4860262;29;20516;-51
2023/06/06 13:07:39;;;;;;;6.25;2.67;;;20.30;1.00;;;;;;4860449;29;20045;-49
2023/06/06 13:10:08;;;;;;;4.10;2.35;;;20.30;1.00;;;;;;4861440;29;20550;-49